createdAt,value
2018-07-13T00:10:25.226Z,21.72
2018-07-13T00:11:26.022Z,21.71
2018-07-13T00:12:26.792Z,21.71
2018-07-13T00:13:27.565Z,21.71
2018-07-13T00:14:28.336Z,21.71
2018-07-13T00:15:29.107Z,21.71
2018-07-13T00:16:29.903Z,21.71
2018-07-13T00:17:30.675Z,21.71
2018-07-13T00:18:31.455Z,21.72
2018-07-13T00:19:32.219Z,21.72
2018-07-13T00:20:32.989Z,21.72
2018-07-13T00:21:33.791Z,21.73
2018-07-13T00:22:34.560Z,21.73
2018-07-13T00:23:35.333Z,21.73
2018-07-13T00:24:36.103Z,21.74
2018-07-13T00:25:36.877Z,21.74
2018-07-13T00:26:37.673Z,21.75
2018-07-13T00:27:38.446Z,21.74
2018-07-13T00:28:39.220Z,21.74
2018-07-13T00:29:39.997Z,21.74
2018-07-13T00:30:40.772Z,21.74
2018-07-13T00:31:41.572Z,21.73
2018-07-13T00:32:42.341Z,21.74
2018-07-13T00:33:43.114Z,21.73
2018-07-13T00:34:43.888Z,21.73
2018-07-13T00:35:44.663Z,21.72
2018-07-13T00:36:45.463Z,21.71
2018-07-13T00:37:46.229Z,21.69
2018-07-13T00:38:47.006Z,21.68
2018-07-13T00:39:47.778Z,21.66
2018-07-13T00:40:48.546Z,21.64
2018-07-13T00:41:49.350Z,21.63
2018-07-13T00:42:50.116Z,21.61
2018-07-13T00:43:50.889Z,21.60
2018-07-13T00:44:51.661Z,21.59
2018-07-13T00:45:51.433Z,21.58
2018-07-13T00:46:53.231Z,21.57
2018-07-13T00:47:54.004Z,21.55
2018-07-13T00:48:54.777Z,21.53
2018-07-13T00:49:55.550Z,21.52
2018-07-13T00:50:56.328Z,21.50
2018-07-13T00:51:57.120Z,21.48
2018-07-13T00:52:57.896Z,21.47
2018-07-13T00:53:58.669Z,21.45
2018-07-13T00:54:59.445Z,21.44
2018-07-13T00:56:00.210Z,21.43
2018-07-13T00:57:01.019Z,21.42
2018-07-13T00:58:01.786Z,21.41
2018-07-13T00:59:02.559Z,21.40
2018-07-13T01:00:03.331Z,21.39
2018-07-13T01:01:04.111Z,21.38
2018-07-13T01:02:04.902Z,21.37
2018-07-13T01:03:05.680Z,21.36
2018-07-13T01:04:06.449Z,21.35
2018-07-13T01:05:07.223Z,21.34
2018-07-13T01:06:07.995Z,21.33
2018-07-13T01:07:08.789Z,21.32
2018-07-13T01:08:09.562Z,21.30
2018-07-13T01:09:10.336Z,21.29
2018-07-13T01:10:11.111Z,21.28
2018-07-13T01:11:11.884Z,21.27
2018-07-13T01:12:12.680Z,21.26
2018-07-13T01:13:13.452Z,21.25
2018-07-13T01:14:14.228Z,21.24
2018-07-13T01:15:14.996Z,21.23
2018-07-13T01:16:14.771Z,21.22
2018-07-13T01:17:16.565Z,21.22
2018-07-13T01:18:17.338Z,21.21
2018-07-13T01:19:18.108Z,21.20
2018-07-13T01:20:18.881Z,21.19
2018-07-13T01:21:19.653Z,21.18
2018-07-13T01:22:20.455Z,21.17
2018-07-13T01:23:21.226Z,21.16
2018-07-13T01:24:22.002Z,21.15
2018-07-13T01:25:22.769Z,21.14
2018-07-13T01:26:23.542Z,21.13
2018-07-13T01:27:24.340Z,21.11
2018-07-13T01:28:25.115Z,21.10
2018-07-13T01:29:25.885Z,21.09
2018-07-13T01:30:26.660Z,21.08
2018-07-13T01:31:27.432Z,21.07
2018-07-13T01:32:28.231Z,21.06
2018-07-13T01:33:29.002Z,21.05
2018-07-13T01:34:29.774Z,21.04
2018-07-13T01:35:30.550Z,21.03
2018-07-13T01:36:31.320Z,21.02
2018-07-13T01:37:32.121Z,21.01
2018-07-13T01:38:32.891Z,21.01
2018-07-13T01:39:33.662Z,21.00
2018-07-13T01:40:34.436Z,20.99
2018-07-13T01:41:35.208Z,20.99
2018-07-13T01:42:36.007Z,20.99
2018-07-13T01:43:36.787Z,20.99
2018-07-13T01:44:37.571Z,20.98
2018-07-13T01:45:38.333Z,20.98
2018-07-13T01:46:39.108Z,20.98
2018-07-13T01:47:39.903Z,20.97
2018-07-13T01:48:40.679Z,20.97
2018-07-13T01:49:41.456Z,20.96
2018-07-13T01:50:42.227Z,20.96
2018-07-13T01:51:43.004Z,20.96
2018-07-13T01:52:43.799Z,20.95
2018-07-13T01:53:44.575Z,20.94
2018-07-13T01:54:45.347Z,20.94
2018-07-13T01:55:46.239Z,20.93
2018-07-13T01:56:45.895Z,20.92
2018-07-13T01:57:47.692Z,20.91
2018-07-13T01:58:48.466Z,20.90
2018-07-13T01:59:49.617Z,20.89
2018-07-13T02:08:25.418Z,20.79
2018-07-13T02:09:26.206Z,20.76
2018-07-13T02:10:26.978Z,20.76
2018-07-13T02:11:27.746Z,20.76
2018-07-13T02:12:28.518Z,20.76
2018-07-13T02:13:29.312Z,20.75
2018-07-13T02:14:30.086Z,20.74
2018-07-13T02:15:30.856Z,20.73
2018-07-13T02:16:31.637Z,20.73
2018-07-13T02:17:32.407Z,20.73
2018-07-13T02:18:33.209Z,20.72
2018-07-13T02:19:33.980Z,20.72
2018-07-13T02:20:34.745Z,20.72
2018-07-13T02:21:35.518Z,20.72
2018-07-13T02:22:36.294Z,20.72
2018-07-13T02:23:37.088Z,20.71
2018-07-13T02:24:37.859Z,20.71
2018-07-13T02:25:38.630Z,20.70
2018-07-13T02:26:39.406Z,20.69
2018-07-13T02:27:40.180Z,20.68
2018-07-13T02:28:40.969Z,20.67
2018-07-13T02:29:41.738Z,20.66
2018-07-13T02:30:42.512Z,20.66
2018-07-13T02:31:43.282Z,20.65
2018-07-13T02:32:44.056Z,20.65
2018-07-13T02:33:44.925Z,20.65
2018-07-13T02:34:44.620Z,20.65
2018-07-13T02:35:46.389Z,20.65
2018-07-13T02:36:47.166Z,20.65
2018-07-13T02:37:47.938Z,20.65
2018-07-13T02:38:48.733Z,20.65
2018-07-13T02:39:49.500Z,20.65
2018-07-13T02:40:50.272Z,20.65
2018-07-13T02:41:51.043Z,20.65
2018-07-13T02:42:51.820Z,20.65
2018-07-13T02:43:52.611Z,20.65
2018-07-13T02:44:53.386Z,20.65
2018-07-13T02:45:54.186Z,20.64
2018-07-13T02:46:54.930Z,20.64
2018-07-13T02:47:55.703Z,20.63
2018-07-13T02:48:56.500Z,20.63
2018-07-13T02:49:57.269Z,20.63
2018-07-13T02:50:58.042Z,20.63
2018-07-13T02:51:58.818Z,20.62
2018-07-13T02:52:59.593Z,20.62
2018-07-13T02:54:00.389Z,20.61
2018-07-13T02:55:01.162Z,20.61
2018-07-13T02:56:01.935Z,20.61
2018-07-13T02:57:02.707Z,20.61
2018-07-13T02:58:03.475Z,20.61
2018-07-13T02:59:04.271Z,20.60
2018-07-13T03:00:05.044Z,20.60
2018-07-13T03:01:05.823Z,20.59
2018-07-13T03:02:06.594Z,20.59
2018-07-13T03:03:07.367Z,20.58
2018-07-13T03:04:08.161Z,20.58
2018-07-13T03:05:08.932Z,20.57
2018-07-13T03:06:09.713Z,20.57
2018-07-13T03:07:10.476Z,20.57
2018-07-13T03:08:11.251Z,20.56
2018-07-13T03:09:12.051Z,20.55
2018-07-13T03:10:12.819Z,20.54
2018-07-13T03:11:13.595Z,20.54
2018-07-13T03:12:14.369Z,20.53
2018-07-13T03:13:15.133Z,20.52
2018-07-13T03:14:15.928Z,20.52
2018-07-13T03:15:16.703Z,20.52
2018-07-13T03:16:17.479Z,20.51
2018-07-13T03:17:18.244Z,20.51
2018-07-13T03:18:19.017Z,20.50
2018-07-13T03:19:19.816Z,20.49
2018-07-13T03:20:20.588Z,20.49
2018-07-13T03:21:21.359Z,20.48
2018-07-13T03:22:22.129Z,20.47
2018-07-13T03:23:22.901Z,20.47
2018-07-13T03:24:23.696Z,20.46
2018-07-13T03:25:24.469Z,20.46
2018-07-13T03:26:25.245Z,20.46
2018-07-13T03:27:26.021Z,20.46
2018-07-13T03:28:26.790Z,20.45
2018-07-13T03:29:27.584Z,20.45
2018-07-13T03:30:28.359Z,20.45
2018-07-13T03:31:29.130Z,20.45
2018-07-13T03:32:29.904Z,20.45
2018-07-13T03:33:30.675Z,20.45
2018-07-13T03:34:31.485Z,20.44
2018-07-13T03:35:32.245Z,20.44
2018-07-13T03:36:33.019Z,20.44
2018-07-13T03:37:33.789Z,20.43
2018-07-13T03:38:34.570Z,20.43
2018-07-13T03:39:35.358Z,20.42
2018-07-13T03:40:36.134Z,20.42
2018-07-13T03:41:36.908Z,20.42
2018-07-13T03:42:37.676Z,20.42
2018-07-13T03:43:38.453Z,20.43
2018-07-13T03:44:39.295Z,20.43
2018-07-13T03:45:40.064Z,20.43
2018-07-13T03:46:40.830Z,20.43
2018-07-13T03:47:41.604Z,20.43
2018-07-13T03:48:42.377Z,20.43
2018-07-13T03:49:43.170Z,20.43
2018-07-13T03:50:43.941Z,20.43
2018-07-13T03:51:44.714Z,20.42
2018-07-13T03:52:45.486Z,20.42
2018-07-13T03:53:46.262Z,20.42
2018-07-13T03:54:47.058Z,20.42
2018-07-13T03:55:47.933Z,20.42
2018-07-13T03:56:48.004Z,20.41
2018-07-13T03:57:49.180Z,20.41
2018-07-13T03:58:48.376Z,20.41
2018-07-13T03:59:48.551Z,20.40
2018-07-13T04:00:48.761Z,20.40
2018-07-13T04:03:43.235Z,20.35
2018-07-13T04:04:44.006Z,20.33
2018-07-13T04:05:44.801Z,20.33
2018-07-13T04:06:45.571Z,20.33
2018-07-13T04:07:46.342Z,20.33
2018-07-13T04:08:47.112Z,20.33
2018-07-13T04:09:47.886Z,20.34
2018-07-13T04:10:48.680Z,20.33
2018-07-13T04:11:49.454Z,20.34
2018-07-13T04:12:50.220Z,20.34
2018-07-13T04:13:50.994Z,20.33
2018-07-13T04:14:51.769Z,20.33
2018-07-13T04:15:52.566Z,20.33
2018-07-13T04:16:53.339Z,20.33
2018-07-13T04:17:54.112Z,20.33
2018-07-13T04:18:54.883Z,20.33
2018-07-13T04:19:55.652Z,20.33
2018-07-13T04:20:56.455Z,20.33
2018-07-13T04:21:57.222Z,20.33
2018-07-13T04:22:57.994Z,20.33
2018-07-13T04:23:58.765Z,20.34
2018-07-13T04:24:59.536Z,20.34
2018-07-13T04:26:00.333Z,20.34
2018-07-13T04:27:01.103Z,20.35
2018-07-13T04:28:01.879Z,20.35
2018-07-13T04:29:02.645Z,20.36
2018-07-13T04:30:03.417Z,20.35
2018-07-13T04:31:04.216Z,20.36
2018-07-13T04:32:04.986Z,20.36
2018-07-13T04:33:05.767Z,20.36
2018-07-13T04:34:06.560Z,20.36
2018-07-13T04:35:07.302Z,20.36
2018-07-13T04:36:08.101Z,20.36
2018-07-13T04:37:08.871Z,20.36
2018-07-13T04:38:09.645Z,20.37
2018-07-13T04:39:10.415Z,20.37
2018-07-13T04:40:11.187Z,20.37
2018-07-13T04:41:12.044Z,20.37
2018-07-13T04:42:11.757Z,20.37
2018-07-13T04:43:13.529Z,20.38
2018-07-13T04:44:14.300Z,20.39
2018-07-13T04:45:15.081Z,20.39
2018-07-13T04:46:15.870Z,20.40
2018-07-13T04:47:16.643Z,20.40
2018-07-13T04:48:17.412Z,20.41
2018-07-13T04:49:18.183Z,20.42
2018-07-13T04:50:19.023Z,20.43
2018-07-13T04:51:18.753Z,20.44
2018-07-13T04:52:20.526Z,20.45
2018-07-13T04:53:21.299Z,20.46
2018-07-13T04:54:22.068Z,20.47
2018-07-13T04:55:22.850Z,20.48
2018-07-13T04:56:23.645Z,20.49
2018-07-13T04:57:24.420Z,20.50
2018-07-13T04:58:25.186Z,20.50
2018-07-13T04:59:25.961Z,20.51
2018-07-13T05:00:26.731Z,20.52
2018-07-13T05:01:27.534Z,20.53
2018-07-13T05:02:28.302Z,20.54
2018-07-13T05:03:29.078Z,20.56
2018-07-13T05:04:29.847Z,20.56
2018-07-13T05:05:30.622Z,20.58
2018-07-13T05:06:31.417Z,20.59
2018-07-13T05:07:32.188Z,20.60
2018-07-13T05:08:32.968Z,20.62
2018-07-13T05:09:33.740Z,20.63
2018-07-13T05:10:34.518Z,20.64
2018-07-13T05:11:35.312Z,20.65
2018-07-13T05:12:36.085Z,20.67
2018-07-13T05:13:36.859Z,20.68
2018-07-13T05:14:37.634Z,20.69
2018-07-13T05:15:38.404Z,20.70
2018-07-13T05:16:39.206Z,20.71
2018-07-13T05:17:39.975Z,20.72
2018-07-13T05:18:40.748Z,20.73
2018-07-13T05:19:41.519Z,20.74
2018-07-13T05:20:42.293Z,20.75
2018-07-13T05:21:43.090Z,20.77
2018-07-13T05:22:43.868Z,20.78
2018-07-13T05:23:44.637Z,20.80
2018-07-13T05:24:45.410Z,20.81
2018-07-13T05:25:46.178Z,20.82
2018-07-13T05:26:46.978Z,20.84
2018-07-13T05:27:47.751Z,20.85
2018-07-13T05:28:48.520Z,20.86
2018-07-13T05:29:49.294Z,20.87
2018-07-13T05:30:50.134Z,20.88
2018-07-13T05:31:49.865Z,20.90
2018-07-13T05:32:51.636Z,20.91
2018-07-13T05:33:52.413Z,20.92
2018-07-13T05:34:53.182Z,20.94
2018-07-13T05:35:53.954Z,20.95
2018-07-13T05:36:54.750Z,20.96
2018-07-13T05:37:55.522Z,20.97
2018-07-13T05:38:56.293Z,20.98
2018-07-13T05:39:57.072Z,20.99
2018-07-13T05:40:57.841Z,21.01
2018-07-13T05:41:58.637Z,21.02
2018-07-13T05:42:59.407Z,21.04
2018-07-13T05:44:00.183Z,21.06
2018-07-13T05:45:00.954Z,21.07
2018-07-13T05:46:01.728Z,21.08
2018-07-13T05:47:02.529Z,21.09
2018-07-13T05:48:03.299Z,21.10
2018-07-13T05:49:04.070Z,21.11
2018-07-13T05:50:04.844Z,21.13
2018-07-13T05:51:05.618Z,21.14
2018-07-13T05:52:06.415Z,21.16
2018-07-13T05:53:07.959Z,21.18
2018-07-13T05:54:08.151Z,21.19
2018-07-13T05:55:07.327Z,21.21
2018-07-13T05:58:22.431Z,21.67
2018-07-13T05:59:23.200Z,21.64
2018-07-13T06:00:23.972Z,21.65
2018-07-13T06:01:24.742Z,21.65
2018-07-13T06:02:25.592Z,21.66
2018-07-13T06:03:25.308Z,21.66
2018-07-13T06:04:27.081Z,21.67
2018-07-13T06:05:27.851Z,21.68
2018-07-13T06:06:28.626Z,21.69
2018-07-13T06:07:29.421Z,21.71
2018-07-13T06:08:30.196Z,21.72
2018-07-13T06:09:30.975Z,21.74
2018-07-13T06:10:31.751Z,21.75
2018-07-13T06:11:32.512Z,21.77
2018-07-13T06:12:33.312Z,21.78
2018-07-13T06:13:34.085Z,21.80
2018-07-13T06:14:34.863Z,21.82
2018-07-13T06:15:35.669Z,21.84
2018-07-13T06:16:35.395Z,21.86
2018-07-13T06:17:37.199Z,21.89
2018-07-13T06:18:37.962Z,21.91
2018-07-13T06:19:38.735Z,21.93
2018-07-13T06:20:39.510Z,21.96
2018-07-13T06:21:40.279Z,21.99
2018-07-13T06:22:41.078Z,22.01
2018-07-13T06:23:41.849Z,22.04
2018-07-13T06:24:42.617Z,22.07
2018-07-13T06:25:43.388Z,22.10
2018-07-13T06:26:44.163Z,22.13
2018-07-13T06:27:44.960Z,22.16
2018-07-13T06:28:45.731Z,22.19
2018-07-13T06:29:46.502Z,22.22
2018-07-13T06:30:47.278Z,22.25
2018-07-13T06:31:48.050Z,22.28
2018-07-13T06:32:48.845Z,22.32
2018-07-13T06:33:49.615Z,22.35
2018-07-13T06:34:50.392Z,22.38
2018-07-13T06:35:51.163Z,22.41
2018-07-13T06:36:51.939Z,22.45
2018-07-13T06:37:52.734Z,22.48
2018-07-13T06:38:53.505Z,22.52
2018-07-13T06:39:54.279Z,22.56
2018-07-13T06:40:55.055Z,22.60
2018-07-13T06:41:55.825Z,22.64
2018-07-13T06:42:56.636Z,22.68
2018-07-13T06:43:57.402Z,22.71
2018-07-13T06:44:58.178Z,22.76
2018-07-13T06:45:58.946Z,22.80
2018-07-13T06:46:59.727Z,22.84
2018-07-13T06:48:00.518Z,22.88
2018-07-13T06:49:01.294Z,22.92
2018-07-13T06:50:02.066Z,22.96
2018-07-13T06:51:02.841Z,23.00
2018-07-13T06:52:03.610Z,23.04
2018-07-13T06:53:04.412Z,23.09
2018-07-13T06:54:05.180Z,23.13
2018-07-13T06:55:05.958Z,23.17
2018-07-13T06:56:06.726Z,23.21
2018-07-13T06:57:07.502Z,23.26
2018-07-13T06:58:08.299Z,23.31
2018-07-13T06:59:09.066Z,23.35
2018-07-13T07:00:09.839Z,23.40
2018-07-13T07:01:10.616Z,23.45
2018-07-13T07:02:11.383Z,23.50
2018-07-13T07:03:12.186Z,23.54
2018-07-13T07:04:12.956Z,23.59
2018-07-13T07:05:13.733Z,23.64
2018-07-13T07:06:14.500Z,23.68
2018-07-13T07:07:15.279Z,23.73
2018-07-13T07:08:16.068Z,23.78
2018-07-13T07:09:16.841Z,23.82
2018-07-13T07:10:17.615Z,23.87
2018-07-13T07:11:18.392Z,23.91
2018-07-13T07:12:19.160Z,23.94
2018-07-13T07:13:19.958Z,23.97
2018-07-13T07:14:20.729Z,24.01
2018-07-13T07:15:21.508Z,24.04
2018-07-13T07:16:22.277Z,24.08
2018-07-13T07:17:23.053Z,24.11
2018-07-13T07:18:23.847Z,24.15
2018-07-13T07:19:24.620Z,24.19
2018-07-13T07:20:25.390Z,24.23
2018-07-13T07:21:26.168Z,24.27
2018-07-13T07:22:26.106Z,24.31
2018-07-13T07:23:26.826Z,24.34
2018-07-13T07:24:28.617Z,24.38
2018-07-13T07:25:28.373Z,24.42
2018-07-13T07:26:30.147Z,24.45
2018-07-13T07:27:30.916Z,24.48
2018-07-13T07:28:31.716Z,24.51
2018-07-13T07:29:32.488Z,24.54
2018-07-13T07:30:33.314Z,24.56
2018-07-13T07:31:33.035Z,24.59
2018-07-13T07:32:34.810Z,24.62
2018-07-13T07:33:35.603Z,24.65
2018-07-13T07:34:36.378Z,24.68
2018-07-13T07:35:37.152Z,24.70
2018-07-13T07:36:37.923Z,24.73
2018-07-13T07:37:38.932Z,24.77
2018-07-13T07:38:38.656Z,24.80
2018-07-13T07:39:40.679Z,24.84
2018-07-13T07:40:40.376Z,24.88
2018-07-13T07:41:42.147Z,24.92
2018-07-13T07:42:42.928Z,24.96
2018-07-13T07:43:43.721Z,25.00
2018-07-13T07:44:44.491Z,25.05
2018-07-13T07:45:45.263Z,25.09
2018-07-13T07:46:46.033Z,25.14
2018-07-13T07:47:46.805Z,25.18
2018-07-13T07:48:47.608Z,25.23
2018-07-13T07:49:48.379Z,25.28
2018-07-13T07:50:49.150Z,25.33
2018-07-13T07:51:50.025Z,25.38
2018-07-13T07:52:50.080Z,25.43
2018-07-13T07:53:51.294Z,25.48
2018-07-13T07:54:50.485Z,25.56
2018-07-13T07:54:57.931Z,27.11
2018-07-13T07:55:58.709Z,27.13
2018-07-13T07:56:59.477Z,27.15
2018-07-13T07:58:00.255Z,27.20
2018-07-13T07:59:01.047Z,27.27
2018-07-13T08:00:01.820Z,27.35
2018-07-13T08:01:02.591Z,27.44
2018-07-13T08:02:03.363Z,27.54
2018-07-13T08:03:04.138Z,27.63
2018-07-13T08:04:04.943Z,27.74
2018-07-13T08:05:04.702Z,27.84
2018-07-13T08:06:06.488Z,27.94
2018-07-13T08:07:07.907Z,28.05
2018-07-13T08:08:07.021Z,28.16
2018-07-13T08:09:08.816Z,28.27
2018-07-13T08:10:09.590Z,28.38
2018-07-13T08:11:10.366Z,28.49
2018-07-13T08:12:11.132Z,28.61
2018-07-13T08:13:11.912Z,28.72
2018-07-13T08:14:13.092Z,28.84
2018-07-13T08:15:12.483Z,28.96
2018-07-13T08:16:14.259Z,29.08
2018-07-13T08:17:15.023Z,29.20
2018-07-13T08:18:15.795Z,29.32
2018-07-13T08:19:16.591Z,29.45
2018-07-13T08:20:17.364Z,29.57
2018-07-13T08:21:18.136Z,29.69
2018-07-13T08:22:18.913Z,29.82
2018-07-13T08:23:19.685Z,29.94
2018-07-13T08:24:20.483Z,30.07
2018-07-13T08:25:21.255Z,30.19
2018-07-13T08:26:22.031Z,30.31
2018-07-13T08:27:22.804Z,30.43
2018-07-13T08:28:23.574Z,30.55
2018-07-13T08:29:24.371Z,30.67
2018-07-13T08:30:25.144Z,30.78
2018-07-13T08:31:25.914Z,30.90
2018-07-13T08:32:26.694Z,31.02
2018-07-13T08:33:27.465Z,31.13
2018-07-13T08:34:28.261Z,31.24
2018-07-13T08:35:29.033Z,31.35
2018-07-13T08:36:29.807Z,31.46
2018-07-13T08:37:30.574Z,31.57
2018-07-13T08:38:31.348Z,31.68
2018-07-13T08:39:32.154Z,31.78
2018-07-13T08:40:32.918Z,31.88
2018-07-13T08:41:33.699Z,31.98
2018-07-13T08:42:34.461Z,32.08
2018-07-13T08:43:35.235Z,32.17
2018-07-13T08:44:36.031Z,32.27
2018-07-13T08:45:36.830Z,32.36
2018-07-13T08:46:37.575Z,32.45
2018-07-13T08:47:38.345Z,32.55
2018-07-13T08:48:39.118Z,32.63
2018-07-13T08:49:39.915Z,32.72
2018-07-13T08:50:40.688Z,32.80
2018-07-13T08:51:41.540Z,32.89
2018-07-13T08:52:41.240Z,32.97
2018-07-13T08:53:43.008Z,33.05
2018-07-13T08:54:43.810Z,33.13
2018-07-13T08:55:44.695Z,33.21
2018-07-13T08:56:44.616Z,33.28
2018-07-13T08:57:45.311Z,33.36
2018-07-13T08:58:47.082Z,33.43
2018-07-13T08:59:47.927Z,33.51
2018-07-13T09:00:47.648Z,33.58
2018-07-13T09:01:49.625Z,33.65
2018-07-13T09:02:49.319Z,33.71
2018-07-13T09:03:51.090Z,33.78
2018-07-13T09:04:51.986Z,33.85
2018-07-13T09:05:51.781Z,33.92
2018-07-13T09:06:52.449Z,33.98
2018-07-13T09:07:54.218Z,34.04
2018-07-13T09:08:54.989Z,34.10
2018-07-13T09:09:55.785Z,34.16
2018-07-13T09:10:56.556Z,34.22
2018-07-13T09:11:57.433Z,34.28
2018-07-13T09:12:57.171Z,34.34
2018-07-13T09:13:57.878Z,34.40
2018-07-13T09:14:59.676Z,34.45
2018-07-13T09:16:00.447Z,34.51
2018-07-13T09:17:01.217Z,34.57
2018-07-13T09:18:01.991Z,34.62
2018-07-13T09:19:02.764Z,34.68
2018-07-13T09:20:03.567Z,34.73
2018-07-13T09:21:04.334Z,34.77
2018-07-13T09:22:05.102Z,34.82
2018-07-13T09:23:05.877Z,34.86
2018-07-13T09:24:06.727Z,34.91
2018-07-13T09:25:06.445Z,34.95
2018-07-13T09:26:08.217Z,35.00
2018-07-13T09:27:08.996Z,35.04
2018-07-13T09:28:09.764Z,35.08
2018-07-13T09:29:10.544Z,35.11
2018-07-13T09:30:11.332Z,35.15
2018-07-13T09:31:12.165Z,35.18
2018-07-13T09:32:11.880Z,35.22
2018-07-13T09:33:13.654Z,35.26
2018-07-13T09:34:14.435Z,35.30
2018-07-13T09:35:15.230Z,35.35
2018-07-13T09:36:16.001Z,35.39
2018-07-13T09:37:16.781Z,35.43
2018-07-13T09:38:17.653Z,35.46
2018-07-13T09:39:17.322Z,35.50
2018-07-13T09:40:19.120Z,35.54
2018-07-13T09:41:19.889Z,35.58
2018-07-13T09:42:20.664Z,35.61
2018-07-13T09:43:21.435Z,35.64
2018-07-13T09:44:22.211Z,35.68
2018-07-13T09:45:23.009Z,35.71
2018-07-13T09:46:23.780Z,35.74
2018-07-13T09:47:24.549Z,35.77
2018-07-13T09:48:25.323Z,35.79
2018-07-13T09:49:26.093Z,35.82
2018-07-13T09:50:26.894Z,35.84
2018-07-13T09:51:27.662Z,35.86
2018-07-13T09:52:28.438Z,35.88
2018-07-13T09:53:29.211Z,35.90
2018-07-13T09:54:30.084Z,35.91
2018-07-13T09:55:57.310Z,36.14
2018-07-13T09:56:58.101Z,36.10
2018-07-13T09:57:58.853Z,36.09
2018-07-13T09:58:59.621Z,36.09
2018-07-13T10:00:00.397Z,36.09
2018-07-13T10:01:01.209Z,36.09
2018-07-13T10:02:00.965Z,36.08
2018-07-13T10:03:02.731Z,36.07
2018-07-13T10:04:03.509Z,36.06
2018-07-13T10:05:04.281Z,36.05
2018-07-13T10:06:05.081Z,36.04
2018-07-13T10:07:05.846Z,36.03
2018-07-13T10:08:06.616Z,36.01
2018-07-13T10:09:07.390Z,35.98
2018-07-13T10:10:08.164Z,35.95
2018-07-13T10:11:08.958Z,35.91
2018-07-13T10:12:09.729Z,35.86
2018-07-13T10:13:10.499Z,35.82
2018-07-13T10:14:11.278Z,35.78
2018-07-13T10:15:12.047Z,35.74
2018-07-13T10:16:12.841Z,35.69
2018-07-13T10:17:13.614Z,35.63
2018-07-13T10:18:14.385Z,35.57
2018-07-13T10:19:15.154Z,35.51
2018-07-13T10:20:15.929Z,35.44
2018-07-13T10:21:16.722Z,35.37
2018-07-13T10:22:17.496Z,35.29
2018-07-13T10:23:18.265Z,35.21
2018-07-13T10:24:19.038Z,35.13
2018-07-13T10:25:19.816Z,35.05
2018-07-13T10:26:20.606Z,34.94
2018-07-13T10:27:21.379Z,34.85
2018-07-13T10:28:22.148Z,34.75
2018-07-13T10:29:22.921Z,34.64
2018-07-13T10:30:23.693Z,34.53
2018-07-13T10:31:24.490Z,34.42
2018-07-13T10:32:25.273Z,34.30
2018-07-13T10:33:26.037Z,34.19
2018-07-13T10:34:26.809Z,34.08
2018-07-13T10:35:27.623Z,33.98
2018-07-13T10:36:27.377Z,33.87
2018-07-13T10:37:29.149Z,33.76
2018-07-13T10:38:29.929Z,33.66
2018-07-13T10:39:30.693Z,33.57
2018-07-13T10:40:31.467Z,33.47
2018-07-13T10:41:32.269Z,33.37
2018-07-13T10:42:33.040Z,33.27
2018-07-13T10:43:33.810Z,33.19
2018-07-13T10:44:34.583Z,33.09
2018-07-13T10:45:35.355Z,33.00
2018-07-13T10:46:36.157Z,32.93
2018-07-13T10:47:36.941Z,32.86
2018-07-13T10:48:36.699Z,32.81
2018-07-13T10:49:38.468Z,32.76
2018-07-13T10:50:39.242Z,32.71
2018-07-13T10:51:40.041Z,32.66
2018-07-13T10:52:40.815Z,32.60
2018-07-13T10:53:41.592Z,32.56
2018-07-13T10:54:42.361Z,32.52
2018-07-13T10:55:43.140Z,32.48
2018-07-13T10:56:43.933Z,32.44
2018-07-13T10:57:44.703Z,32.40
2018-07-13T10:58:45.519Z,32.33
2018-07-13T10:59:45.257Z,32.26
2018-07-13T11:00:47.024Z,32.18
2018-07-13T11:01:47.825Z,32.09
2018-07-13T11:02:48.628Z,31.99
2018-07-13T11:03:48.368Z,31.90
2018-07-13T11:04:50.144Z,31.83
2018-07-13T11:05:50.918Z,31.78
2018-07-13T11:06:51.714Z,31.74
2018-07-13T11:07:52.489Z,31.71
2018-07-13T11:08:53.258Z,31.69
2018-07-13T11:09:54.034Z,31.68
2018-07-13T11:10:54.804Z,31.67
2018-07-13T11:11:55.601Z,31.67
2018-07-13T11:12:56.372Z,31.67
2018-07-13T11:13:57.160Z,31.67
2018-07-13T11:14:56.915Z,31.67
2018-07-13T11:15:58.691Z,31.66
2018-07-13T11:16:59.493Z,31.67
2018-07-13T11:18:00.331Z,31.67
2018-07-13T11:19:00.049Z,31.67
2018-07-13T11:20:01.817Z,31.68
2018-07-13T11:21:02.590Z,31.68
2018-07-13T11:22:03.385Z,31.68
2018-07-13T11:23:04.157Z,31.67
2018-07-13T11:24:04.939Z,31.64
2018-07-13T11:25:05.711Z,31.60
2018-07-13T11:26:06.479Z,31.56
2018-07-13T11:27:07.279Z,31.52
2018-07-13T11:28:08.049Z,31.50
2018-07-13T11:29:08.825Z,31.49
2018-07-13T11:30:09.597Z,31.49
2018-07-13T11:31:10.372Z,31.49
2018-07-13T11:32:11.171Z,31.50
2018-07-13T11:33:11.941Z,31.50
2018-07-13T11:34:12.720Z,31.50
2018-07-13T11:35:13.489Z,31.50
2018-07-13T11:36:14.264Z,31.50
2018-07-13T11:37:15.173Z,31.50
2018-07-13T11:38:14.834Z,31.49
2018-07-13T11:39:16.608Z,31.49
2018-07-13T11:40:17.383Z,31.48
2018-07-13T11:41:18.158Z,31.48
2018-07-13T11:42:18.954Z,31.47
2018-07-13T11:43:19.726Z,31.46
2018-07-13T11:44:20.502Z,31.44
2018-07-13T11:45:21.273Z,31.43
2018-07-13T11:46:22.046Z,31.42
2018-07-13T11:47:22.844Z,31.40
2018-07-13T11:48:23.615Z,31.39
2018-07-13T11:49:24.486Z,31.38
2018-07-13T11:50:24.545Z,31.38
2018-07-13T11:51:25.729Z,31.39
2018-07-13T11:52:24.933Z,31.41
2018-07-13T11:53:25.136Z,31.42
2018-07-13T12:08:56.317Z,31.41
2018-07-13T12:09:56.088Z,31.41
2018-07-13T12:10:57.857Z,31.42
2018-07-13T12:11:58.675Z,31.45
2018-07-13T12:12:59.411Z,31.51
2018-07-13T12:14:00.204Z,31.60
2018-07-13T12:15:00.977Z,31.68
2018-07-13T12:16:01.753Z,31.73
2018-07-13T12:17:02.526Z,31.76
2018-07-13T12:18:03.296Z,31.78
2018-07-13T12:19:04.089Z,31.77
2018-07-13T12:20:04.865Z,31.76
2018-07-13T12:21:05.632Z,31.75
2018-07-13T12:22:06.404Z,31.74
2018-07-13T12:23:07.194Z,31.77
2018-07-13T12:24:07.978Z,31.80
2018-07-13T12:25:08.747Z,31.82
2018-07-13T12:26:09.533Z,31.89
2018-07-13T12:27:10.310Z,32.03
2018-07-13T12:28:11.095Z,32.18
2018-07-13T12:29:12.004Z,32.32
2018-07-13T12:30:11.675Z,32.46
2018-07-13T12:31:13.447Z,32.56
2018-07-13T12:32:14.226Z,32.62
2018-07-13T12:33:15.001Z,32.66
2018-07-13T12:34:15.989Z,32.70
2018-07-13T12:35:15.588Z,32.74
2018-07-13T12:36:17.354Z,32.77
2018-07-13T12:37:18.128Z,32.79
2018-07-13T12:38:18.899Z,32.80
2018-07-13T12:39:19.697Z,32.80
2018-07-13T12:40:20.469Z,32.79
2018-07-13T12:41:21.240Z,32.76
2018-07-13T12:42:22.016Z,32.71
2018-07-13T12:43:22.784Z,32.65
2018-07-13T12:44:23.583Z,32.57
2018-07-13T12:45:24.357Z,32.49
2018-07-13T12:46:25.132Z,32.40
2018-07-13T12:47:25.916Z,32.31
2018-07-13T12:48:26.699Z,32.22
2018-07-13T12:49:27.480Z,32.12
2018-07-13T12:50:28.254Z,32.02
2018-07-13T12:51:29.024Z,31.92
2018-07-13T12:52:29.798Z,31.82
2018-07-13T12:53:30.571Z,31.73
2018-07-13T12:54:31.464Z,31.64
2018-07-13T12:55:31.180Z,31.55
2018-07-13T12:56:32.959Z,31.46
2018-07-13T12:57:33.722Z,31.37
2018-07-13T12:58:34.491Z,31.29
2018-07-13T12:59:35.333Z,31.21
2018-07-13T13:00:35.062Z,31.14
2018-07-13T13:01:36.835Z,31.06
2018-07-13T13:02:37.608Z,31.00
2018-07-13T13:03:38.443Z,30.93
2018-07-13T13:04:38.184Z,30.87
2018-07-13T13:05:40.148Z,30.81
2018-07-13T13:06:39.726Z,30.76
2018-07-13T13:07:41.504Z,30.71
2018-07-13T13:08:42.295Z,30.66
2018-07-13T13:09:43.079Z,30.62
2018-07-13T13:10:43.852Z,30.57
2018-07-13T13:11:44.625Z,30.53
2018-07-13T13:12:45.397Z,30.49
2018-07-13T13:13:46.171Z,30.45
2018-07-13T13:14:46.966Z,30.41
2018-07-13T13:15:47.744Z,30.37
2018-07-13T13:16:48.520Z,30.33
2018-07-13T13:17:49.296Z,30.29
2018-07-13T13:18:50.065Z,30.25
2018-07-13T13:19:50.866Z,30.22
2018-07-13T13:20:51.633Z,30.18
2018-07-13T13:21:52.549Z,30.14
2018-07-13T13:22:52.181Z,30.10
2018-07-13T13:23:53.956Z,30.06
2018-07-13T13:24:54.752Z,30.02
2018-07-13T13:25:55.526Z,29.99
2018-07-13T13:26:56.300Z,29.95
2018-07-13T13:27:57.070Z,29.92
2018-07-13T13:28:57.848Z,29.88
2018-07-13T13:29:58.643Z,29.85
2018-07-13T13:30:59.415Z,29.82
2018-07-13T13:32:00.186Z,29.79
2018-07-13T13:33:00.962Z,29.77
2018-07-13T13:34:01.734Z,29.75
2018-07-13T13:35:02.532Z,29.73
2018-07-13T13:36:03.305Z,29.71
2018-07-13T13:37:04.076Z,29.70
2018-07-13T13:38:04.846Z,29.68